Arvin, CA

4:37 PM PST on November 26, 2014 (GMT -0800)
E. Belle Terrace | Change Station
CLOSE
Current Station
Personal Weather Station
Location: Bakersfield, CA
Elevation: 386 ft
Nearby Weather Stations

Elev 386 ft 35.35 °N, 118.97 °W | Updated 2 minutes ago

Clear
Clear
67.6 °F
Feels Like 67.6 °F
N
0.0
Wind Variable Wind from SSW
Gusts 0.0 mph

Today
High -- | Low -- °F
--% Chance of Precip.
Yesterday
High -- | Low -- °F
Precip. -- in
6:40 AM 4:44 PM
Waxing Crescent, 24% visible
Pressure 30.22 in
Visibility 4.0 miles
Clouds Clear
Dew Point 44 °F
Humidity 42%
Rainfall 0.00 in
Snow Depth Not available.
UV 0.0 out of 12
Pollen 2.10 out of 12
Air Quality Not available.
Flu Activity Not available.
METAR KBFL 262354Z 00000KT 4SM HZ CLR 20/06 A3022 RMK AO2 SLP231 T02000061 10200 20133 56010

More Conditions Fewer Conditions

Pressure 30.22 in
Visibility 4.0 miles
Clouds Clear
Dew Point 44 °F
Humidity 42%
Rainfall 0.00 in
Snow Depth Not available.
UV 0.0 out of 12
Pollen 2.10 out of 12
Air Quality Not available.
Flu Activity Not available.
METAR KBFL 262354Z 00000KT 4SM HZ CLR 20/06 A3022 RMK AO2 SLP231 T02000061 10200 20133 56010

More Conditions Fewer Conditions

10-Day Weather Forecast

Almanac

Astronomy

Nov. 26, 2014 Rise Set
Actual Time
Civil Twilight
Nautical Twilight
Astronomical Twilight
Moon
Length of Visible Light
Length of Day
Tomorrow will be .
, % of the Moon is Illuminated

Today's Extremes

State Highs State Lows

Community

WunderPhotos

Upload Photos

1,773,930 photos uploaded!

WunderBlogs® & News

Nearby

Air Quality

  Air Quality AQ Index Pollutant
Not available.

Snow Depth

Station Depth Elevation

Earthquake Activity

City Distance Mag. Time & Date
Minimum magnitude displayed is 2.5.

Coastal Water Temperatures

Place Temperature

Nearby Weather Stations